createdAt,value
2023-08-18T00:01:51.459Z,23.42
2023-08-18T00:04:18.714Z,23.39
2023-08-18T00:07:05.280Z,23.32
2023-08-18T00:09:35.764Z,23.25
2023-08-18T00:17:34.413Z,23.30
2023-08-18T00:20:01.507Z,23.28
2023-08-18T00:22:31.221Z,23.30
2023-08-18T00:25:05.615Z,23.26
2023-08-18T00:27:34.040Z,23.26
2023-08-18T00:30:01.048Z,23.21
2023-08-18T00:32:28.233Z,23.21
2023-08-18T00:34:56.305Z,23.24
2023-08-18T00:37:27.470Z,23.24
2023-08-18T00:39:57.530Z,23.26
2023-08-18T00:42:24.548Z,23.28
2023-08-18T00:45:06.535Z,23.28
2023-08-18T00:47:33.743Z,23.29
2023-08-18T00:50:02.968Z,23.22
2023-08-18T00:52:29.737Z,23.19
2023-08-18T00:54:57.366Z,23.14
2023-08-18T00:57:28.185Z,23.17
2023-08-18T01:00:08.631Z,23.23
2023-08-18T01:02:36.883Z,23.22
2023-08-18T01:05:04.214Z,23.25
2023-08-18T01:07:31.379Z,23.23
2023-08-18T01:10:01.482Z,23.26
2023-08-18T01:12:40.875Z,23.29
2023-08-18T01:15:19.657Z,23.27
2023-08-18T01:17:52.175Z,23.13
2023-08-18T01:20:31.457Z,22.98
2023-08-18T01:23:05.778Z,22.86
2023-08-18T01:25:34.916Z,22.85
2023-08-18T01:28:04.824Z,22.74
2023-08-18T01:30:41.856Z,22.69
2023-08-18T01:33:10.340Z,22.59
2023-08-18T01:35:38.059Z,22.55
2023-08-18T01:38:06.262Z,22.49
2023-08-18T01:40:34.279Z,22.35
2023-08-18T01:43:01.375Z,22.31
2023-08-18T01:45:28.378Z,22.26
2023-08-18T01:47:55.574Z,22.22
2023-08-18T01:50:22.832Z,22.17
2023-08-18T01:52:49.768Z,22.13
2023-08-18T01:55:18.226Z,22.03
2023-08-18T01:57:45.130Z,21.95
2023-08-18T02:00:20.049Z,21.89
2023-08-18T02:02:48.905Z,21.82
2023-08-18T02:05:16.266Z,21.74
2023-08-18T02:07:43.410Z,21.70
2023-08-18T02:10:10.554Z,21.59
2023-08-18T02:12:39.046Z,21.67
2023-08-18T02:15:07.802Z,21.81
2023-08-18T02:17:34.795Z,21.95
2023-08-18T02:20:05.132Z,22.07
2023-08-18T02:22:32.318Z,22.09
2023-08-18T02:24:59.306Z,22.07
2023-08-18T02:27:27.349Z,22.07
2023-08-18T02:29:56.973Z,22.10
2023-08-18T02:32:24.638Z,22.17
2023-08-18T02:34:51.738Z,22.20
2023-08-18T02:37:18.763Z,22.21
2023-08-18T02:39:45.718Z,22.17
2023-08-18T02:42:12.756Z,22.15
2023-08-18T02:44:40.107Z,22.13
2023-08-18T02:47:11.014Z,22.14
2023-08-18T02:49:38.269Z,22.14
2023-08-18T02:52:05.384Z,22.09
2023-08-18T02:54:32.535Z,22.05
2023-08-18T02:57:00.853Z,22.00
2023-08-18T02:59:27.921Z,21.94
2023-08-18T03:01:55.395Z,21.97
2023-08-18T03:04:23.753Z,21.88
2023-08-18T03:06:50.767Z,21.80
2023-08-18T03:09:20.298Z,21.77
2023-08-18T03:11:47.896Z,21.78
2023-08-18T03:14:14.849Z,21.67
2023-08-18T03:16:42.608Z,21.62
2023-08-18T03:19:09.661Z,21.55
2023-08-18T03:21:38.912Z,21.52
2023-08-18T03:24:06.244Z,21.50
2023-08-18T03:26:33.411Z,21.51
2023-08-18T03:29:00.494Z,21.48
2023-08-18T03:31:27.969Z,21.49
2023-08-18T03:33:55.225Z,21.50
2023-08-18T03:36:22.221Z,21.55
2023-08-18T03:38:51.622Z,21.45
2023-08-18T03:41:18.666Z,21.53
2023-08-18T03:43:45.670Z,21.56
2023-08-18T03:46:22.458Z,21.61
2023-08-18T03:48:51.627Z,21.59
2023-08-18T03:51:18.938Z,21.67
2023-08-18T03:53:46.287Z,21.73
2023-08-18T03:56:15.297Z,21.77
2023-08-18T03:58:43.492Z,21.79
2023-08-18T04:01:10.859Z,21.77
2023-08-18T04:03:42.435Z,21.71
2023-08-18T04:06:11.128Z,21.74
2023-08-18T04:08:41.127Z,21.80
2023-08-18T04:11:09.599Z,21.77
2023-08-18T04:13:38.065Z,21.59
2023-08-18T04:16:05.353Z,21.56
2023-08-18T04:18:32.736Z,21.58
2023-08-18T04:20:59.797Z,21.63
2023-08-18T04:23:30.159Z,21.64
2023-08-18T04:25:57.996Z,21.67
2023-08-18T04:28:25.123Z,21.66
2023-08-18T04:30:53.719Z,21.71
2023-08-18T04:33:42.302Z,21.75
2023-08-18T04:36:10.160Z,21.81
2023-08-18T04:38:38.698Z,21.89
2023-08-18T04:41:10.470Z,21.88
2023-08-18T04:43:37.502Z,21.85
2023-08-18T04:46:05.999Z,21.88
2023-08-18T04:48:34.088Z,21.90
2023-08-18T04:51:02.936Z,21.97
2023-08-18T04:53:29.993Z,21.99
2023-08-18T04:55:57.044Z,21.98
2023-08-18T04:58:24.236Z,21.99
2023-08-18T05:00:51.220Z,22.05
2023-08-18T05:03:19.837Z,22.12
2023-08-18T05:06:09.018Z,22.12
2023-08-18T05:08:36.928Z,22.15
2023-08-18T05:11:05.474Z,22.19
2023-08-18T05:13:32.904Z,22.19
2023-08-18T05:16:01.004Z,22.23
2023-08-18T05:18:32.530Z,22.33
2023-08-18T05:21:00.207Z,22.43
2023-08-18T05:23:27.982Z,22.45
2023-08-18T05:25:58.126Z,22.48
2023-08-18T05:28:26.043Z,22.51
2023-08-18T05:30:53.656Z,22.58
2023-08-18T05:33:21.372Z,22.53
2023-08-18T05:35:49.756Z,22.56
2023-08-18T05:38:16.799Z,22.59
2023-08-18T05:40:45.201Z,22.71
2023-08-18T05:43:13.567Z,22.75
2023-08-18T05:45:40.899Z,22.84
2023-08-18T05:48:08.604Z,22.90
2023-08-18T05:50:35.970Z,22.98
2023-08-18T05:53:05.182Z,23.04
2023-08-18T05:55:33.044Z,23.05
2023-08-18T05:58:02.283Z,23.16
2023-08-18T06:00:29.970Z,23.24
2023-08-18T06:02:57.627Z,23.32
2023-08-18T06:05:27.703Z,23.44
2023-08-18T06:07:54.771Z,23.60
2023-08-18T06:10:23.996Z,23.71
2023-08-18T06:12:51.203Z,23.85
2023-08-18T06:15:18.595Z,23.95
2023-08-18T06:17:45.603Z,24.05
2023-08-18T06:20:13.292Z,24.09
2023-08-18T06:22:40.307Z,24.15
2023-08-18T06:25:08.586Z,24.25
2023-08-18T06:27:36.919Z,24.38
2023-08-18T06:30:04.476Z,24.45
2023-08-18T06:32:31.671Z,24.53
2023-08-18T06:34:58.970Z,24.57
2023-08-18T06:37:26.068Z,24.70
2023-08-18T06:39:53.147Z,24.79
2023-08-18T06:42:20.139Z,24.90
2023-08-18T06:44:48.601Z,25.01
2023-08-18T06:47:15.601Z,25.12
2023-08-18T06:49:42.884Z,25.28
2023-08-18T06:52:09.781Z,25.40
2023-08-18T06:54:36.761Z,25.49
2023-08-18T06:57:03.955Z,25.59
2023-08-18T06:59:31.016Z,25.70
2023-08-18T07:01:59.344Z,25.78
2023-08-18T07:04:26.466Z,25.89
2023-08-18T07:06:53.471Z,26.03
2023-08-18T07:09:20.577Z,26.14
2023-08-18T07:11:47.577Z,26.35
2023-08-18T07:14:14.618Z,26.52
2023-08-18T07:16:41.663Z,26.67
2023-08-18T07:19:10.041Z,26.79
2023-08-18T07:21:37.041Z,26.89
2023-08-18T07:24:04.730Z,26.90
2023-08-18T07:26:32.609Z,26.98
2023-08-18T07:28:59.754Z,27.16
2023-08-18T07:31:26.909Z,27.32
2023-08-18T07:33:54.029Z,27.39
2023-08-18T07:36:22.398Z,27.39
2023-08-18T07:38:49.405Z,27.60
2023-08-18T07:41:16.370Z,27.73
2023-08-18T07:43:43.476Z,27.74
2023-08-18T07:46:11.796Z,27.62
2023-08-18T07:48:40.171Z,27.58
2023-08-18T07:51:07.499Z,27.96
2023-08-18T07:53:35.870Z,28.25
2023-08-18T07:56:03.459Z,28.40
2023-08-18T07:58:30.496Z,28.60
2023-08-18T08:00:58.323Z,28.87
2023-08-18T08:03:25.665Z,28.98
2023-08-18T08:05:52.464Z,29.15
2023-08-18T08:08:19.666Z,29.27
2023-08-18T08:10:47.850Z,29.41
2023-08-18T08:13:14.928Z,29.56
2023-08-18T08:15:46.864Z,29.72
2023-08-18T08:18:14.826Z,29.68
2023-08-18T08:20:41.887Z,29.67
2023-08-18T08:23:09.020Z,29.65
2023-08-18T08:25:36.508Z,29.44
2023-08-18T08:28:06.736Z,29.41
2023-08-18T08:30:36.521Z,29.19
2023-08-18T08:33:07.877Z,29.27
2023-08-18T08:35:35.106Z,29.58
2023-08-18T08:38:02.116Z,29.35
2023-08-18T08:40:29.158Z,29.33
2023-08-18T08:45:29.263Z,29.38
2023-08-18T08:47:59.708Z,29.67
2023-08-18T08:50:32.567Z,29.69
2023-08-18T08:53:01.428Z,29.97
2023-08-18T08:55:32.378Z,30.40
2023-08-18T08:57:59.402Z,30.53
2023-08-18T09:00:28.864Z,30.86
2023-08-18T09:03:00.783Z,30.64
2023-08-18T09:05:30.310Z,30.86
2023-08-18T09:07:57.299Z,31.12
2023-08-18T09:10:24.289Z,31.01
2023-08-18T09:12:51.450Z,30.70
2023-08-18T09:15:18.629Z,31.04
2023-08-18T09:17:47.055Z,31.10
2023-08-18T09:20:15.301Z,30.84
2023-08-18T09:22:45.680Z,30.73
2023-08-18T09:25:13.413Z,30.65
2023-08-18T09:27:40.557Z,30.62
2023-08-18T09:30:08.504Z,30.78
2023-08-18T09:32:36.672Z,31.25
2023-08-18T09:35:11.511Z,31.54
2023-08-18T09:37:38.546Z,31.81
2023-08-18T09:40:06.966Z,32.11
2023-08-18T09:42:33.910Z,32.23
2023-08-18T09:45:00.996Z,32.21
2023-08-18T09:47:28.515Z,31.54
2023-08-18T09:49:55.775Z,32.07
2023-08-18T09:52:24.059Z,32.52
2023-08-18T09:54:53.974Z,32.63
2023-08-18T09:57:27.092Z,32.82
2023-08-18T09:59:56.854Z,32.75
2023-08-18T10:02:25.667Z,33.06
2023-08-18T10:04:52.937Z,33.20
2023-08-18T10:07:20.136Z,33.32
2023-08-18T10:09:48.288Z,33.38
2023-08-18T10:12:15.316Z,33.32
2023-08-18T10:14:42.136Z,33.23
2023-08-18T10:17:11.098Z,33.37
2023-08-18T10:19:48.752Z,33.51
2023-08-18T10:22:17.311Z,33.45
2023-08-18T10:24:49.692Z,33.82
2023-08-18T10:27:33.110Z,34.13
2023-08-18T10:30:01.794Z,34.14
2023-08-18T10:32:29.288Z,34.20
2023-08-18T10:35:18.935Z,33.23
2023-08-18T10:37:45.995Z,32.89
2023-08-18T10:40:19.580Z,33.16
2023-08-18T10:42:46.671Z,33.29
2023-08-18T10:45:23.054Z,33.81
2023-08-18T10:47:50.724Z,34.27
2023-08-18T10:50:19.336Z,34.73
2023-08-18T10:52:46.386Z,34.92
2023-08-18T10:55:13.072Z,35.17
2023-08-18T10:57:42.112Z,35.49
2023-08-18T11:00:12.720Z,35.64
2023-08-18T11:02:39.980Z,36.00
2023-08-18T11:05:07.735Z,35.85
2023-08-18T11:07:34.973Z,35.44
2023-08-18T11:10:02.058Z,35.13
2023-08-18T11:12:29.134Z,35.36
2023-08-18T11:14:57.732Z,35.85
2023-08-18T11:17:24.726Z,35.90
2023-08-18T11:19:51.782Z,35.60
2023-08-18T11:22:19.241Z,35.79
2023-08-18T11:24:46.373Z,35.91
2023-08-18T11:27:13.365Z,35.76
2023-08-18T11:29:40.901Z,35.67
2023-08-18T11:32:09.954Z,35.60
2023-08-18T11:34:37.192Z,35.46
2023-08-18T11:37:06.156Z,35.28
2023-08-18T11:39:34.041Z,35.28
2023-08-18T11:42:01.823Z,35.38
2023-08-18T11:44:28.980Z,35.49
2023-08-18T11:46:58.630Z,35.10
2023-08-18T11:49:27.328Z,34.92
2023-08-18T11:51:57.641Z,34.72
2023-08-18T11:54:25.506Z,34.61
2023-08-18T11:56:52.872Z,34.43
2023-08-18T11:59:20.614Z,34.13
2023-08-18T12:01:47.657Z,33.49
2023-08-18T12:04:14.434Z,33.39
2023-08-18T12:06:42.837Z,33.74
2023-08-18T12:09:13.739Z,33.27
2023-08-18T12:11:40.797Z,33.03
2023-08-18T12:14:08.121Z,33.55
2023-08-18T12:16:35.452Z,34.10
2023-08-18T12:19:05.764Z,34.31
2023-08-18T12:21:33.134Z,34.93
2023-08-18T12:24:02.282Z,35.36
2023-08-18T12:26:29.423Z,35.67
2023-08-18T12:28:56.492Z,35.85
2023-08-18T12:31:25.873Z,35.96
2023-08-18T12:33:53.158Z,36.24
2023-08-18T12:36:23.320Z,36.37
2023-08-18T12:38:50.746Z,36.38
2023-08-18T12:41:19.203Z,36.68
2023-08-18T12:43:46.329Z,36.67
2023-08-18T12:46:13.427Z,36.85
2023-08-18T12:48:40.468Z,36.92
2023-08-18T12:51:07.559Z,37.12
2023-08-18T12:53:34.503Z,37.08
2023-08-18T12:56:01.671Z,37.04
2023-08-18T12:58:30.658Z,37.34
2023-08-18T13:00:57.698Z,37.27
2023-08-18T13:03:24.739Z,37.43
2023-08-18T13:05:51.834Z,37.52
2023-08-18T13:08:18.746Z,37.32
2023-08-18T13:10:47.244Z,37.59
2023-08-18T13:13:14.229Z,37.86
2023-08-18T13:15:42.608Z,37.95
2023-08-18T13:18:09.699Z,37.90
2023-08-18T13:20:37.653Z,37.93
2023-08-18T13:23:05.133Z,38.03
2023-08-18T13:25:33.031Z,37.82
2023-08-18T13:28:00.202Z,37.79
2023-08-18T13:30:27.308Z,38.10
2023-08-18T13:32:55.694Z,38.12
2023-08-18T13:35:22.678Z,37.96
2023-08-18T13:37:51.566Z,37.79
2023-08-18T13:40:18.891Z,37.08
2023-08-18T13:42:45.900Z,36.84
2023-08-18T13:45:13.058Z,36.89
2023-08-18T13:47:40.259Z,37.07
2023-08-18T13:50:09.002Z,37.25
2023-08-18T13:52:36.034Z,37.12
2023-08-18T13:55:03.198Z,37.45
2023-08-18T13:57:30.153Z,37.65
2023-08-18T13:59:57.427Z,37.88
2023-08-18T14:02:24.470Z,38.06
2023-08-18T14:04:52.244Z,38.17
2023-08-18T14:07:20.663Z,38.26
2023-08-18T14:09:47.642Z,37.88
2023-08-18T14:12:14.570Z,37.66
2023-08-18T14:14:41.467Z,37.38
2023-08-18T14:17:09.977Z,37.19
2023-08-18T14:19:37.126Z,36.98
2023-08-18T14:22:04.132Z,37.05
2023-08-18T14:24:32.568Z,37.04
2023-08-18T14:26:59.538Z,36.75
2023-08-18T14:29:26.577Z,36.54
2023-08-18T14:31:53.818Z,36.29
2023-08-18T14:34:20.875Z,35.94
2023-08-18T14:36:47.893Z,35.55
2023-08-18T14:39:14.907Z,35.25
2023-08-18T14:41:43.110Z,35.01
2023-08-18T14:44:10.764Z,34.70
2023-08-18T14:46:37.770Z,34.88
2023-08-18T14:49:05.572Z,34.84
2023-08-18T14:51:32.644Z,34.61
2023-08-18T14:53:59.405Z,34.57
2023-08-18T14:56:26.447Z,34.84
2023-08-18T14:58:54.590Z,35.05
2023-08-18T15:01:21.619Z,35.14
2023-08-18T15:03:49.445Z,35.14
2023-08-18T15:06:16.739Z,35.36
2023-08-18T15:08:43.781Z,35.47
2023-08-18T15:11:10.797Z,35.39
2023-08-18T15:13:37.909Z,35.35
2023-08-18T15:16:06.397Z,35.12
2023-08-18T15:18:33.591Z,35.20
2023-08-18T15:21:00.666Z,35.31
2023-08-18T15:23:27.476Z,35.43
2023-08-18T15:25:54.516Z,35.30
2023-08-18T15:28:21.717Z,35.06
2023-08-18T15:30:48.662Z,34.53
2023-08-18T15:33:16.859Z,34.11
2023-08-18T15:35:44.314Z,33.94
2023-08-18T15:38:11.480Z,33.79
2023-08-18T15:40:42.515Z,33.21
2023-08-18T15:43:10.285Z,33.05
2023-08-18T15:45:44.583Z,32.99
2023-08-18T15:48:11.591Z,32.80
2023-08-18T15:50:40.170Z,32.76
2023-08-18T15:53:07.218Z,32.62
2023-08-18T15:55:37.569Z,32.87
2023-08-18T15:58:05.056Z,32.76
2023-08-18T16:00:32.664Z,32.72
2023-08-18T16:02:59.818Z,32.60
2023-08-18T16:05:27.033Z,32.55
2023-08-18T16:07:55.504Z,32.32
2023-08-18T16:10:22.489Z,32.21
2023-08-18T16:12:49.456Z,31.94
2023-08-18T16:17:46.753Z,31.76
2023-08-18T16:20:13.685Z,31.64
2023-08-18T16:22:40.759Z,31.44
2023-08-18T16:25:10.131Z,31.31
2023-08-18T16:27:37.298Z,31.36
2023-08-18T16:30:05.350Z,31.19
2023-08-18T16:32:32.442Z,31.24
2023-08-18T16:34:59.266Z,31.20
2023-08-18T16:37:26.317Z,30.92
2023-08-18T16:39:53.332Z,30.65
2023-08-18T16:42:21.742Z,30.60
2023-08-18T16:44:48.915Z,30.53
2023-08-18T16:47:15.704Z,30.32
2023-08-18T16:49:42.745Z,29.95
2023-08-18T16:52:09.920Z,29.68
2023-08-18T16:54:36.879Z,29.47
2023-08-18T16:57:04.142Z,29.33
2023-08-18T16:59:35.419Z,29.04
2023-08-18T17:02:03.044Z,28.97
2023-08-18T17:04:33.343Z,28.99
2023-08-18T17:07:00.421Z,29.03
2023-08-18T17:09:27.744Z,29.07
2023-08-18T17:11:54.702Z,29.10
2023-08-18T17:14:22.048Z,29.17
2023-08-18T17:16:50.592Z,29.21
2023-08-18T17:19:17.681Z,29.20
2023-08-18T17:21:44.734Z,29.09
2023-08-18T17:24:13.733Z,28.81
2023-08-18T17:26:42.257Z,28.56
2023-08-18T17:29:09.217Z,28.31
2023-08-18T17:31:36.277Z,28.22
2023-08-18T17:34:04.966Z,28.21
2023-08-18T17:36:32.024Z,28.19
2023-08-18T17:38:59.298Z,28.20
2023-08-18T17:41:26.203Z,28.16
2023-08-18T17:43:53.265Z,28.08
2023-08-18T17:46:20.333Z,27.96
2023-08-18T17:48:47.416Z,27.76
2023-08-18T17:51:15.861Z,27.67
2023-08-18T17:53:42.816Z,27.53
2023-08-18T17:56:10.048Z,27.23
2023-08-18T17:58:37.051Z,27.09
2023-08-18T18:01:04.111Z,26.92
2023-08-18T18:03:31.182Z,26.80
2023-08-18T18:05:58.450Z,26.59
2023-08-18T18:08:28.247Z,26.54
2023-08-18T18:10:55.337Z,26.38
2023-08-18T18:13:22.378Z,26.22
2023-08-18T18:15:49.425Z,26.17
2023-08-18T18:18:16.454Z,26.01
2023-08-18T18:20:43.541Z,25.86
2023-08-18T18:23:10.553Z,25.72
2023-08-18T18:25:38.886Z,25.70
2023-08-18T18:28:06.250Z,25.64
2023-08-18T18:30:33.558Z,25.49
2023-08-18T18:33:00.588Z,25.48
2023-08-18T18:35:28.045Z,25.36
2023-08-18T18:37:54.821Z,25.19
2023-08-18T18:40:21.582Z,25.10
2023-08-18T18:42:50.191Z,25.10
2023-08-18T18:45:18.334Z,24.97
2023-08-18T18:47:45.479Z,24.97
2023-08-18T18:50:12.577Z,24.94
2023-08-18T18:52:39.506Z,24.92
2023-08-18T18:55:07.310Z,24.87
2023-08-18T18:57:34.563Z,24.85
2023-08-18T19:00:02.897Z,24.86
2023-08-18T19:02:32.765Z,24.82
2023-08-18T19:05:00.102Z,24.81
2023-08-18T19:07:27.474Z,24.81
2023-08-18T19:09:54.608Z,24.80
2023-08-18T19:12:21.843Z,24.84
2023-08-18T19:14:49.863Z,24.91
2023-08-18T19:17:18.788Z,25.01
2023-08-18T19:19:45.903Z,25.07
2023-08-18T19:22:16.862Z,25.07
2023-08-18T19:24:44.146Z,25.12
2023-08-18T19:27:11.322Z,25.14
2023-08-18T19:29:38.268Z,25.15
2023-08-18T19:32:10.047Z,25.19
2023-08-18T19:34:38.576Z,25.21
2023-08-18T19:37:06.875Z,25.20
2023-08-18T19:39:34.007Z,25.10
2023-08-18T19:42:01.176Z,24.88
2023-08-18T19:44:28.645Z,24.86
2023-08-18T19:46:55.551Z,24.85
2023-08-18T19:49:22.717Z,24.83
2023-08-18T19:51:50.997Z,24.83
2023-08-18T19:54:19.680Z,24.89
2023-08-18T19:56:47.023Z,24.96
2023-08-18T19:59:14.155Z,24.98
2023-08-18T20:01:41.132Z,25.02
2023-08-18T20:04:08.261Z,25.02
2023-08-18T20:06:35.187Z,25.01
2023-08-18T20:09:04.226Z,25.01
2023-08-18T20:11:31.247Z,24.95
2023-08-18T20:13:58.314Z,25.00
2023-08-18T20:16:26.077Z,25.02
2023-08-18T20:18:53.169Z,25.02
2023-08-18T20:21:20.254Z,25.00
2023-08-18T20:23:47.318Z,24.91
2023-08-18T20:26:15.715Z,24.87
2023-08-18T20:28:43.939Z,24.81
2023-08-18T20:31:11.517Z,24.80
2023-08-18T20:33:38.687Z,24.76
2023-08-18T20:36:06.116Z,24.67
2023-08-18T20:38:35.723Z,24.65
2023-08-18T20:41:07.046Z,24.62
2023-08-18T20:43:35.595Z,24.59
2023-08-18T20:46:02.573Z,24.58
2023-08-18T20:48:30.538Z,24.60
2023-08-18T20:50:58.799Z,24.57
2023-08-18T20:53:25.959Z,24.60
2023-08-18T20:55:53.127Z,24.56
2023-08-18T20:58:20.065Z,24.54
2023-08-18T21:00:54.099Z,24.58
2023-08-18T21:03:21.202Z,24.61
2023-08-18T21:05:48.409Z,24.63
2023-08-18T21:08:15.936Z,24.60
2023-08-18T21:10:42.882Z,24.56
2023-08-18T21:13:09.882Z,24.54
2023-08-18T21:15:37.058Z,24.52
2023-08-18T21:18:05.795Z,24.47
2023-08-18T21:20:32.887Z,24.49
2023-08-18T21:23:18.790Z,24.49
2023-08-18T21:25:45.785Z,24.41
2023-08-18T21:28:12.812Z,24.38
2023-08-18T21:30:40.400Z,24.39
2023-08-18T21:33:08.927Z,24.36
2023-08-18T21:35:35.925Z,24.35
2023-08-18T21:38:02.988Z,24.35
2023-08-18T21:40:29.994Z,24.30
2023-08-18T21:42:56.947Z,24.29
2023-08-18T21:45:26.148Z,24.28
2023-08-18T21:47:54.800Z,24.26
2023-08-18T21:50:23.389Z,24.23
2023-08-18T21:52:50.326Z,24.22
2023-08-18T21:55:17.462Z,24.23
2023-08-18T21:57:44.509Z,24.23
2023-08-18T22:00:11.970Z,24.21
2023-08-18T22:02:42.174Z,24.21
2023-08-18T22:05:09.657Z,24.16
2023-08-18T22:07:37.981Z,24.15
2023-08-18T22:10:07.244Z,24.15
2023-08-18T22:12:34.284Z,24.15
2023-08-18T22:15:01.520Z,24.15
2023-08-18T22:17:28.456Z,24.13
2023-08-18T22:19:55.684Z,24.14
2023-08-18T22:22:33.285Z,24.08
2023-08-18T22:25:03.418Z,24.09
2023-08-18T22:27:30.469Z,24.09
2023-08-18T22:29:57.407Z,24.10
2023-08-18T22:32:24.556Z,24.07
2023-08-18T22:34:51.595Z,24.07
2023-08-18T22:37:18.519Z,24.09
2023-08-18T22:39:45.596Z,24.03
2023-08-18T22:42:14.027Z,24.03
2023-08-18T22:44:41.018Z,24.01
2023-08-18T22:47:09.962Z,23.98
2023-08-18T22:49:37.186Z,23.94
2023-08-18T22:52:05.258Z,23.91
2023-08-18T22:54:32.658Z,23.88
2023-08-18T22:56:59.871Z,23.85
2023-08-18T22:59:28.831Z,23.85
2023-08-18T23:01:56.075Z,23.83
2023-08-18T23:04:23.396Z,23.70
2023-08-18T23:06:50.722Z,23.60
2023-08-18T23:09:17.750Z,23.59
2023-08-18T23:11:44.784Z,23.48
2023-08-18T23:14:11.817Z,23.40
2023-08-18T23:16:40.617Z,23.35
2023-08-18T23:19:07.598Z,23.26
2023-08-18T23:21:34.682Z,23.17
2023-08-18T23:24:01.739Z,23.19
2023-08-18T23:26:28.741Z,23.22
2023-08-18T23:28:55.726Z,23.19
2023-08-18T23:31:23.508Z,23.17
2023-08-18T23:33:51.950Z,23.13
2023-08-18T23:36:18.943Z,23.14
2023-08-18T23:38:46.891Z,23.13
2023-08-18T23:41:13.876Z,23.10
2023-08-18T23:43:41.392Z,23.08
2023-08-18T23:46:08.528Z,23.04
2023-08-18T23:48:41.024Z,23.02
2023-08-18T23:51:11.073Z,22.99
2023-08-18T23:53:38.314Z,22.96
2023-08-18T23:56:05.469Z,22.96
2023-08-18T23:58:32.760Z,22.91
